Time;durP1;ratioP1;P1;durP2;ratioP2;P2;SDS_P1;SDS_P2;PMS_P1;PMS_P2;Temp;Humidity;BMP_temperature;BMP_pressure;BME280_temperature;BME280_humidity;BME280_pressure;Samples;Min_cycle;Max_cycle;Signal;HPM_P1;HPM_P2
2021/07/15 00:02:13;;;;;;;15.47;8.93;;;17.60;99.90;;;;;;4859665;29;20461;-74
2021/07/15 00:04:42;;;;;;;15.00;7.87;;;17.60;99.90;;;;;;4857603;29;21018;-74
2021/07/15 00:07:09;;;;;;;8.93;7.67;;;17.60;99.90;;;;;;4858340;29;20432;-74
2021/07/15 00:09:38;;;;;;;11.80;8.97;;;17.50;99.90;;;;;;4858303;29;20516;-74
2021/07/15 00:12:11;;;;;;;9.33;7.57;;;17.50;99.90;;;;;;4858364;29;20949;-74
2021/07/15 00:14:38;;;;;;;14.43;9.57;;;17.50;99.90;;;;;;4859037;29;20480;-74
2021/07/15 00:17:05;;;;;;;12.20;8.37;;;17.40;99.90;;;;;;4858881;29;20429;-74
2021/07/15 00:19:33;;;;;;;16.13;9.20;;;17.40;99.90;;;;;;4860469;29;20568;-74
2021/07/15 00:22:00;;;;;;;13.40;7.00;;;17.40;99.90;;;;;;4876922;29;20464;-74
2021/07/15 00:24:28;;;;;;;13.80;8.53;;;17.40;99.90;;;;;;4867713;29;20491;-74
2021/07/15 00:26:56;;;;;;;27.43;9.60;;;17.40;99.90;;;;;;4859504;29;20433;-74
2021/07/15 00:29:23;;;;;;;14.17;6.07;;;17.40;99.90;;;;;;4858867;29;20569;-74
2021/07/15 00:31:49;;;;;;;7.40;6.03;;;17.30;99.90;;;;;;4859095;29;20793;-74
2021/07/15 00:34:17;;;;;;;14.63;5.27;;;17.30;99.90;;;;;;4860047;29;20479;-74
2021/07/15 00:36:44;;;;;;;9.60;6.30;;;17.30;99.90;;;;;;4863182;29;20434;-74
2021/07/15 00:39:11;;;;;;;10.53;5.70;;;17.30;99.90;;;;;;4862320;29;20481;-74
2021/07/15 00:41:38;;;;;;;11.03;5.23;;;17.30;99.90;;;;;;4868906;29;20821;-74
2021/07/15 00:44:05;;;;;;;8.93;5.80;;;17.30;99.90;;;;;;4881080;29;20518;-74
2021/07/15 00:46:32;;;;;;;10.00;5.57;;;17.40;99.90;;;;;;4881739;29;20443;-75
2021/07/15 00:48:59;;;;;;;7.80;5.40;;;17.40;99.90;;;;;;4868481;29;20485;-75
2021/07/15 00:51:30;;;;;;;9.77;5.57;;;17.40;99.90;;;;;;4861675;29;20476;-74
2021/07/15 00:53:58;;;;;;;12.07;5.93;;;17.40;99.90;;;;;;4862066;29;20481;-74
2021/07/15 00:56:27;;;;;;;10.57;5.13;;;17.40;99.90;;;;;;4862687;29;20439;-74
2021/07/15 00:58:54;;;;;;;8.07;5.27;;;17.40;99.90;;;;;;4862125;29;20467;-74
2021/07/15 01:01:21;;;;;;;6.63;4.40;;;17.30;99.90;;;;;;4862641;29;20525;-74
2021/07/15 01:03:50;;;;;;;9.27;5.40;;;17.30;99.90;;;;;;4879052;29;20477;-74
2021/07/15 01:06:18;;;;;;;7.93;5.63;;;17.30;99.90;;;;;;4880103;29;20436;-74
2021/07/15 01:08:45;;;;;;;12.50;6.43;;;17.30;99.90;;;;;;4877299;29;21009;-74
2021/07/15 01:11:24;;;;;;;6.00;5.10;;;17.30;99.90;;;;;;4862726;29;20441;-74
2021/07/15 01:14:01;;;;;;;11.27;6.30;;;17.30;99.90;;;;;;4860815;29;20475;-74
2021/07/15 01:16:38;;;;;;;10.50;6.00;;;17.20;99.90;;;;;;4891351;29;20434;-74
2021/07/15 01:19:29;;;;;;;6.20;5.70;;;17.20;99.90;;;;;;4869017;29;20474;-74
2021/07/15 01:22:05;;;;;;;8.90;6.00;;;17.20;99.90;;;;;;4862631;29;20454;-74
2021/07/15 01:25:16;;;;;;;7.43;5.60;;;17.30;99.90;;;;;;4861099;29;20484;-74
2021/07/15 01:27:57;;;;;;;7.27;5.27;;;17.30;99.90;;;;;;4876106;29;20442;-74
2021/07/15 01:30:40;;;;;;;6.20;4.40;;;17.30;99.90;;;;;;4861865;29;20487;-74
2021/07/15 01:33:07;;;;;;;9.60;5.00;;;17.30;99.90;;;;;;4861995;29;20457;-74
2021/07/15 01:35:42;;;;;;;5.60;4.87;;;17.30;99.90;;;;;;4876571;29;20536;-74
2021/07/15 01:38:11;;;;;;;9.07;5.17;;;17.40;99.90;;;;;;4860538;29;20494;-74
2021/07/15 01:40:47;;;;;;;6.43;5.03;;;17.30;99.90;;;;;;4861970;29;20455;-74
2021/07/15 01:43:18;;;;;;;7.60;5.40;;;17.30;99.90;;;;;;4861535;29;20465;-74
2021/07/15 01:45:46;;;;;;;9.13;5.53;;;17.30;99.90;;;;;;4860041;29;20472;-74
2021/07/15 01:48:14;;;;;;;10.40;6.30;;;17.30;99.90;;;;;;4859640;29;20774;-74
2021/07/15 01:50:41;;;;;;;8.73;5.37;;;17.20;99.90;;;;;;4862044;29;20575;-74
2021/07/15 01:53:08;;;;;;;6.53;5.03;;;17.20;99.90;;;;;;4876297;29;20466;-74
2021/07/15 01:55:36;;;;;;;11.40;5.33;;;17.20;99.90;;;;;;4878317;29;20439;-74
2021/07/15 01:58:05;;;;;;;9.17;5.57;;;17.20;99.90;;;;;;4879614;29;20507;-74
2021/07/15 02:00:34;;;;;;;7.27;5.87;;;17.20;99.90;;;;;;4880733;29;20522;-74
2021/07/15 02:03:03;;;;;;;7.10;6.00;;;17.20;99.90;;;;;;4878194;29;20478;-74
2021/07/15 02:05:32;;;;;;;7.67;5.73;;;17.30;99.90;;;;;;4878581;29;20466;-74
2021/07/15 02:08:02;;;;;;;8.13;5.80;;;17.30;99.90;;;;;;4880074;29;20436;-74
2021/07/15 02:10:32;;;;;;;9.97;5.77;;;17.30;99.90;;;;;;4874358;29;20481;-74
2021/07/15 02:12:59;;;;;;;8.70;6.57;;;17.30;99.90;;;;;;4861367;29;20553;-74
2021/07/15 02:15:28;;;;;;;8.60;6.77;;;17.20;99.90;;;;;;4861150;29;20811;-74
2021/07/15 02:17:57;;;;;;;6.50;5.80;;;17.20;99.90;;;;;;4861088;29;20622;-74
2021/07/15 02:20:25;;;;;;;8.10;5.93;;;17.30;99.90;;;;;;4864703;29;20469;-74
2021/07/15 02:22:55;;;;;;;9.07;5.93;;;17.20;99.90;;;;;;4861366;29;20453;-74
2021/07/15 02:25:23;;;;;;;8.63;7.00;;;17.20;99.90;;;;;;4874509;29;20488;-74
2021/07/15 02:27:51;;;;;;;7.93;6.80;;;17.20;99.90;;;;;;4861088;29;20432;-74
2021/07/15 02:30:20;;;;;;;9.40;6.57;;;17.30;99.90;;;;;;4861005;29;20572;-74
2021/07/15 02:32:57;;;;;;;10.50;7.30;;;17.30;99.90;;;;;;4860951;29;20502;-74
2021/07/15 02:35:32;;;;;;;14.23;7.70;;;17.30;99.90;;;;;;4874919;29;20481;-74
2021/07/15 02:38:02;;;;;;;10.23;7.30;;;17.40;99.90;;;;;;4860983;29;20431;-74
2021/07/15 02:40:29;;;;;;;9.87;6.70;;;17.40;99.90;;;;;;4860529;29;20481;-74
2021/07/15 02:42:57;;;;;;;11.30;7.00;;;17.40;99.90;;;;;;4861012;29;20451;-74
2021/07/15 02:45:24;;;;;;;10.30;7.33;;;17.40;99.90;;;;;;4860511;29;20470;-74
2021/07/15 02:47:52;;;;;;;8.67;7.17;;;17.30;99.90;;;;;;4860628;29;20435;-74
2021/07/15 02:50:22;;;;;;;10.30;7.30;;;17.30;99.90;;;;;;4860493;29;20839;-74
2021/07/15 02:52:53;;;;;;;11.77;8.00;;;17.30;99.90;;;;;;4874998;29;20462;-74
2021/07/15 02:55:22;;;;;;;9.10;7.40;;;17.20;99.90;;;;;;4858995;29;20486;-74
2021/07/15 02:57:59;;;;;;;9.77;7.00;;;17.20;99.90;;;;;;4859487;29;20431;-74
2021/07/15 03:00:27;;;;;;;15.50;7.13;;;17.30;99.90;;;;;;4860289;29;20460;-74
2021/07/15 03:02:58;;;;;;;11.17;7.37;;;17.30;99.90;;;;;;4864750;29;20476;-74
2021/07/15 03:05:41;;;;;;;11.87;7.57;;;17.20;99.90;;;;;;4879074;29;20884;-74
2021/07/15 03:08:13;;;;;;;10.53;7.43;;;17.20;99.90;;;;;;4879226;29;20465;-74
2021/07/15 03:10:40;;;;;;;11.20;7.60;;;17.30;99.90;;;;;;4861274;29;20478;-74
2021/07/15 03:13:11;;;;;;;13.03;7.53;;;17.30;99.90;;;;;;4859806;29;20544;-74
2021/07/15 03:15:41;;;;;;;10.17;7.60;;;17.20;99.90;;;;;;4874777;29;20413;-74
2021/07/15 03:18:08;;;;;;;11.20;8.67;;;17.20;99.90;;;;;;4859344;29;20459;-74
2021/07/15 03:20:44;;;;;;;11.93;8.27;;;17.20;99.90;;;;;;4884161;29;20424;-74
2021/07/15 03:23:15;;;;;;;10.40;7.30;;;17.30;99.90;;;;;;4879427;29;20513;-74
2021/07/15 03:25:48;;;;;;;9.00;7.40;;;17.30;99.90;;;;;;4859689;29;20546;-74
2021/07/15 03:28:17;;;;;;;14.23;8.87;;;17.30;99.90;;;;;;4858386;29;20442;-74
2021/07/15 03:30:45;;;;;;;11.50;8.60;;;17.20;99.90;;;;;;4874521;29;20485;-74
2021/07/15 03:33:14;;;;;;;14.40;8.57;;;17.30;99.90;;;;;;4859260;29;20525;-74
2021/07/15 03:35:42;;;;;;;10.20;8.17;;;17.30;99.90;;;;;;4858942;29;20953;-74
2021/07/15 03:38:11;;;;;;;10.87;8.47;;;17.30;99.90;;;;;;4859326;29;20791;-74
2021/07/15 03:40:39;;;;;;;13.23;8.63;;;17.30;99.90;;;;;;4859895;29;20457;-74
2021/07/15 03:43:10;;;;;;;11.83;8.27;;;17.30;99.90;;;;;;4859125;29;20454;-74
2021/07/15 03:45:38;;;;;;;10.93;9.00;;;17.40;99.90;;;;;;4858961;29;20542;-74
2021/07/15 03:48:10;;;;;;;14.33;10.50;;;17.40;99.90;;;;;;4859202;29;20877;-74
2021/07/15 03:50:37;;;;;;;16.60;10.07;;;17.40;99.90;;;;;;4859966;29;21023;-74
2021/07/15 03:53:05;;;;;;;11.23;9.47;;;17.50;99.90;;;;;;4859168;29;20824;-74
2021/07/15 03:55:40;;;;;;;13.27;9.13;;;17.40;99.90;;;;;;4859639;29;20557;-74
2021/07/15 03:58:12;;;;;;;13.83;10.13;;;17.30;99.90;;;;;;4858838;29;20922;-74
2021/07/15 04:00:45;;;;;;;11.57;9.93;;;17.30;99.90;;;;;;4858667;29;20441;-74
2021/07/15 04:03:19;;;;;;;11.63;9.70;;;17.30;99.90;;;;;;4857779;29;20481;-74
2021/07/15 04:05:48;;;;;;;13.57;9.40;;;17.30;99.90;;;;;;4859781;29;20771;-74
2021/07/15 04:08:21;;;;;;;14.97;10.23;;;17.30;99.90;;;;;;4858631;29;20446;-74
2021/07/15 04:10:50;;;;;;;14.80;10.70;;;17.30;99.90;;;;;;4873512;29;20560;-74
2021/07/15 04:13:18;;;;;;;14.40;11.50;;;17.40;99.90;;;;;;4842556;29;20543;-74
2021/07/15 04:15:51;;;;;;;16.17;9.53;;;17.40;99.90;;;;;;4859656;29;20425;-74
2021/07/15 04:18:21;;;;;;;17.90;11.10;;;17.40;99.90;;;;;;4858502;29;20544;-74
2021/07/15 04:20:49;;;;;;;13.47;10.03;;;17.30;99.90;;;;;;4870416;29;20527;-74
2021/07/15 04:23:21;;;;;;;18.30;11.37;;;17.30;99.90;;;;;;4876344;29;20466;-74
2021/07/15 04:25:51;;;;;;;17.93;11.17;;;17.30;99.90;;;;;;4859804;29;20487;-74
2021/07/15 04:28:19;;;;;;;20.00;11.20;;;17.30;99.90;;;;;;4857470;29;20434;-74
2021/07/15 04:30:48;;;;;;;20.50;11.37;;;17.20;99.90;;;;;;4858111;29;20478;-74
2021/07/15 04:33:16;;;;;;;20.60;12.33;;;17.20;99.90;;;;;;4857223;29;20478;-74
2021/07/15 04:35:44;;;;;;;15.80;10.97;;;17.20;99.90;;;;;;4842783;29;20442;-74
2021/07/15 04:38:11;;;;;;;16.20;11.10;;;17.20;99.90;;;;;;4842272;29;20451;-74
2021/07/15 04:40:38;;;;;;;13.77;11.50;;;17.20;99.90;;;;;;4858469;29;20512;-74
2021/07/15 04:43:08;;;;;;;14.37;10.43;;;17.20;99.90;;;;;;4858788;29;20457;-74
2021/07/15 04:45:40;;;;;;;14.50;13.00;;;17.20;99.90;;;;;;4858229;29;20434;-74
2021/07/15 04:48:08;;;;;;;14.17;11.20;;;17.20;99.90;;;;;;4856834;29;20972;-74
2021/07/15 04:50:37;;;;;;;15.00;11.60;;;17.20;99.90;;;;;;4859179;29;20478;-74
2021/07/15 04:53:09;;;;;;;15.40;11.90;;;17.30;99.90;;;;;;4857547;29;20477;-74
2021/07/15 04:55:37;;;;;;;15.37;11.40;;;17.30;99.90;;;;;;4858758;29;20458;-74
2021/07/15 04:58:06;;;;;;;20.00;12.10;;;17.20;99.90;;;;;;4858542;29;20435;-74
2021/07/15 05:00:34;;;;;;;23.83;11.80;;;17.20;99.90;;;;;;4857908;29;20476;-74
2021/07/15 05:03:15;;;;;;;20.00;11.17;;;17.20;99.90;;;;;;4857962;29;20480;-74
2021/07/15 05:05:48;;;;;;;15.10;11.13;;;17.20;99.90;;;;;;4858044;29;20456;-74
2021/07/15 05:08:15;;;;;;;14.43;12.33;;;17.20;99.90;;;;;;4858559;29;20955;-74
2021/07/15 05:10:42;;;;;;;14.93;11.10;;;17.20;99.90;;;;;;4873680;29;20464;-74
2021/07/15 05:13:10;;;;;;;18.13;12.07;;;17.20;99.90;;;;;;4857054;29;20994;-74
2021/07/15 05:15:37;;;;;;;25.10;12.13;;;17.20;99.90;;;;;;4859164;29;20435;-74
2021/07/15 05:18:04;;;;;;;22.50;12.50;;;17.20;99.90;;;;;;4858510;29;20475;-74
2021/07/15 05:20:31;;;;;;;15.70;12.10;;;17.10;99.90;;;;;;4864852;29;20739;-74
2021/07/15 05:22:59;;;;;;;13.70;11.53;;;17.10;99.90;;;;;;4876472;29;20835;-74
2021/07/15 05:25:29;;;;;;;20.10;12.27;;;17.20;99.90;;;;;;4861875;29;20475;-74
2021/07/15 05:27:59;;;;;;;14.83;12.33;;;17.20;99.90;;;;;;4876503;29;20445;-74
2021/07/15 05:30:26;;;;;;;16.70;12.23;;;17.20;99.90;;;;;;4861018;29;20472;-74
2021/07/15 05:32:55;;;;;;;17.10;11.73;;;17.20;99.90;;;;;;4881108;29;20458;-73
2021/07/15 05:35:22;;;;;;;19.70;13.03;;;17.20;99.90;;;;;;4864306;29;20907;-73
2021/07/15 05:37:51;;;;;;;16.03;11.37;;;17.30;99.90;;;;;;4861866;29;20436;-73
2021/07/15 05:40:18;;;;;;;15.63;12.43;;;17.30;99.90;;;;;;4845261;29;20500;-73
2021/07/15 05:42:45;;;;;;;15.47;11.27;;;17.30;99.90;;;;;;4860714;29;20449;-73
2021/07/15 05:45:13;;;;;;;20.30;11.50;;;17.30;99.90;;;;;;4861680;29;20478;-74
2021/07/15 05:47:40;;;;;;;16.37;11.77;;;17.30;99.90;;;;;;4845211;29;20525;-73
2021/07/15 05:50:07;;;;;;;14.30;10.97;;;17.30;99.90;;;;;;4859871;29;20488;-74
2021/07/15 05:52:35;;;;;;;16.40;12.23;;;17.30;99.90;;;;;;4876044;29;20533;-73
2021/07/15 05:55:12;;;;;;;15.40;11.43;;;17.30;99.90;;;;;;4869289;29;20983;-74
2021/07/15 05:57:39;;;;;;;17.87;12.93;;;17.40;99.90;;;;;;4875898;29;20435;-73
2021/07/15 06:00:09;;;;;;;21.27;11.70;;;17.40;99.90;;;;;;4861305;29;20468;-73
2021/07/15 06:02:36;;;;;;;16.43;12.03;;;17.40;99.90;;;;;;4861655;29;20430;-73
2021/07/15 06:05:23;;;;;;;16.13;10.50;;;17.50;99.90;;;;;;4875466;29;20476;-74
2021/07/15 06:07:54;;;;;;;13.23;10.80;;;17.40;99.90;;;;;;4875744;29;20521;-73
2021/07/15 06:10:21;;;;;;;17.50;11.43;;;17.50;99.90;;;;;;4874591;29;20506;-73
2021/07/15 06:12:48;;;;;;;17.20;12.07;;;17.50;99.90;;;;;;4875518;29;21057;-73
2021/07/15 06:15:15;;;;;;;13.97;10.80;;;17.50;99.90;;;;;;4878358;29;20486;-73
2021/07/15 06:17:43;;;;;;;16.87;11.97;;;17.50;99.90;;;;;;4874747;29;20468;-73
2021/07/15 06:20:14;;;;;;;19.70;13.23;;;17.50;99.90;;;;;;4879698;29;20462;-73
2021/07/15 06:22:41;;;;;;;17.13;12.07;;;17.50;99.90;;;;;;4878857;29;20445;-73
2021/07/15 06:25:09;;;;;;;17.70;12.67;;;17.50;99.90;;;;;;4865423;29;20515;-73
2021/07/15 06:27:41;;;;;;;16.27;12.33;;;17.50;99.90;;;;;;4867002;29;20451;-73
2021/07/15 06:30:10;;;;;;;19.00;11.80;;;17.50;99.90;;;;;;4857511;29;20464;-73
2021/07/15 06:32:37;;;;;;;18.20;11.47;;;17.50;99.90;;;;;;4878365;29;20507;-73
2021/07/15 06:35:11;;;;;;;21.20;11.70;;;17.50;99.90;;;;;;4860727;29;20487;-73
2021/07/15 06:37:42;;;;;;;17.07;12.30;;;17.50;99.90;;;;;;4859741;29;20427;-73
2021/07/15 06:40:11;;;;;;;20.03;12.83;;;17.60;99.90;;;;;;4874523;29;20504;-73
2021/07/15 06:42:38;;;;;;;14.70;11.40;;;17.50;99.90;;;;;;4879610;29;20488;-73
2021/07/15 06:45:10;;;;;;;19.40;11.43;;;17.50;99.90;;;;;;4854311;29;21110;-73
2021/07/15 06:47:38;;;;;;;15.70;10.57;;;17.40;99.90;;;;;;4859680;29;20533;-73
2021/07/15 06:50:08;;;;;;;13.43;10.23;;;17.50;99.90;;;;;;4859391;29;20473;-73
2021/07/15 06:52:35;;;;;;;18.67;12.67;;;17.50;99.90;;;;;;4860757;29;20550;-73
2021/07/15 06:55:04;;;;;;;18.97;12.70;;;17.50;99.90;;;;;;4859800;29;20483;-73
2021/07/15 06:57:33;;;;;;;17.67;12.10;;;17.50;99.90;;;;;;4870799;29;20820;-73
2021/07/15 07:00:04;;;;;;;16.20;11.10;;;17.50;99.90;;;;;;4877838;29;20971;-73
2021/07/15 07:02:36;;;;;;;14.93;11.60;;;17.50;99.90;;;;;;4871770;29;20457;-73
2021/07/15 07:05:06;;;;;;;14.03;10.20;;;17.50;99.90;;;;;;4859452;29;20479;-73
2021/07/15 07:07:37;;;;;;;21.53;13.07;;;17.50;99.90;;;;;;4905213;29;20530;-73
2021/07/15 07:10:09;;;;;;;20.53;12.40;;;17.50;99.90;;;;;;4865978;29;20493;-72
2021/07/15 07:12:37;;;;;;;20.70;13.40;;;17.50;99.90;;;;;;4859190;29;20544;-73
2021/07/15 07:15:10;;;;;;;18.07;13.63;;;17.50;99.90;;;;;;4860801;29;21004;-73
2021/07/15 07:17:37;;;;;;;19.43;12.53;;;17.50;99.90;;;;;;4877558;29;20473;-72
2021/07/15 07:20:09;;;;;;;20.70;13.70;;;17.50;99.90;;;;;;4873639;29;20481;-73
2021/07/15 07:22:36;;;;;;;18.70;11.60;;;17.50;99.90;;;;;;4860972;29;20949;-73
2021/07/15 07:25:06;;;;;;;19.60;11.97;;;17.50;99.90;;;;;;4864627;29;20484;-73
2021/07/15 07:27:34;;;;;;;18.33;11.20;;;17.50;99.90;;;;;;4843639;29;20563;-72
2021/07/15 07:30:02;;;;;;;18.33;12.83;;;17.60;99.90;;;;;;4864603;29;20476;-73
2021/07/15 07:32:29;;;;;;;16.47;11.47;;;17.60;99.90;;;;;;4869260;29;20524;-72
2021/07/15 07:34:57;;;;;;;19.80;12.10;;;17.70;99.90;;;;;;4863559;29;20485;-72
2021/07/15 07:37:24;;;;;;;19.83;12.67;;;17.80;99.90;;;;;;4859941;29;21153;-72
2021/07/15 07:39:52;;;;;;;16.30;11.87;;;17.70;99.90;;;;;;4869794;29;20501;-73
2021/07/15 07:42:20;;;;;;;21.00;13.40;;;17.80;99.90;;;;;;4877507;29;20427;-73
2021/07/15 07:44:47;;;;;;;19.20;12.53;;;17.80;99.90;;;;;;4877706;29;20851;-72
2021/07/15 07:47:14;;;;;;;18.20;12.63;;;17.80;99.90;;;;;;4882549;29;20444;-72
2021/07/15 07:49:41;;;;;;;16.50;11.90;;;17.90;99.90;;;;;;4859026;29;20572;-72
2021/07/15 07:52:10;;;;;;;15.90;12.53;;;18.00;99.90;;;;;;4859823;29;20916;-72
2021/07/15 07:54:40;;;;;;;20.30;14.10;;;18.10;99.90;;;;;;4864283;29;20483;-72
2021/07/15 07:57:10;;;;;;;14.57;11.47;;;18.10;99.90;;;;;;4860112;29;20496;-72
2021/07/15 07:59:39;;;;;;;18.43;11.00;;;18.10;99.90;;;;;;4859350;29;20478;-72
2021/07/15 08:02:07;;;;;;;16.63;11.63;;;18.10;99.90;;;;;;4852939;29;20463;-72
2021/07/15 08:04:36;;;;;;;17.30;12.43;;;18.20;99.90;;;;;;4873490;29;20543;-72
2021/07/15 08:07:06;;;;;;;14.57;10.13;;;18.30;99.90;;;;;;4892173;29;20458;-72
2021/07/15 08:09:42;;;;;;;16.60;11.00;;;18.40;99.90;;;;;;4874921;29;21061;-72
2021/07/15 08:12:12;;;;;;;15.57;11.10;;;18.40;99.90;;;;;;4877026;29;20478;-72
2021/07/15 08:14:43;;;;;;;14.90;11.17;;;18.40;99.90;;;;;;4877685;29;20483;-72
2021/07/15 08:17:12;;;;;;;17.30;12.20;;;18.50;99.90;;;;;;4876296;29;20495;-72
2021/07/15 08:19:40;;;;;;;17.73;13.70;;;18.60;99.90;;;;;;4876967;29;20460;-72
2021/07/15 08:22:07;;;;;;;14.40;11.27;;;18.70;99.90;;;;;;4877441;29;20461;-72
2021/07/15 08:24:34;;;;;;;15.23;10.00;;;18.70;99.90;;;;;;4877229;29;20898;-72
2021/07/15 08:27:01;;;;;;;13.50;11.60;;;18.80;99.90;;;;;;4877969;29;20441;-72
2021/07/15 08:29:34;;;;;;;15.97;11.60;;;19.00;99.90;;;;;;4877541;29;20478;-72
2021/07/15 08:32:02;;;;;;;13.33;11.20;;;19.10;99.90;;;;;;4857965;29;20473;-72
2021/07/15 08:34:29;;;;;;;12.20;10.40;;;19.20;99.90;;;;;;4876057;29;20834;-72
2021/07/15 08:36:56;;;;;;;14.80;11.80;;;19.30;99.90;;;;;;4877861;29;20527;-72
2021/07/15 08:39:24;;;;;;;11.53;9.73;;;19.60;99.90;;;;;;4868651;29;20994;-72
2021/07/15 08:41:57;;;;;;;15.30;11.70;;;19.70;99.90;;;;;;4857980;29;20558;-72
2021/07/15 08:44:24;;;;;;;15.83;12.80;;;19.90;99.90;;;;;;4857366;29;20480;-70
2021/07/15 08:46:57;;;;;;;12.03;9.73;;;20.00;99.90;;;;;;4865967;29;20541;-72
2021/07/15 08:49:26;;;;;;;14.77;12.87;;;20.20;99.90;;;;;;4877161;29;20508;-70
2021/07/15 08:51:54;;;;;;;12.90;10.63;;;20.30;99.90;;;;;;4875155;29;20476;-72
2021/07/15 08:54:29;;;;;;;13.23;10.67;;;20.30;99.90;;;;;;4859296;29;20497;-72
2021/07/15 08:56:56;;;;;;;10.37;9.37;;;20.40;99.90;;;;;;4877147;29;20842;-72
2021/07/15 08:59:25;;;;;;;11.57;10.50;;;20.50;99.90;;;;;;4878108;29;21056;-73
2021/07/15 09:01:55;;;;;;;12.63;10.73;;;20.50;99.90;;;;;;4874362;29;20441;-72
2021/07/15 09:04:23;;;;;;;12.87;11.03;;;20.50;99.90;;;;;;4862105;29;20494;-72
2021/07/15 09:06:51;;;;;;;11.60;10.50;;;20.70;99.90;;;;;;4861627;29;20489;-72
2021/07/15 09:09:18;;;;;;;9.80;8.80;;;20.80;99.90;;;;;;4865479;29;21091;-72
2021/07/15 09:11:46;;;;;;;11.47;10.10;;;21.00;99.90;;;;;;4861144;29;20513;-72
2021/07/15 09:14:17;;;;;;;13.87;11.00;;;21.20;99.90;;;;;;4872017;29;20464;-72
2021/07/15 09:16:48;;;;;;;10.50;9.50;;;21.30;99.90;;;;;;4879775;29;20465;-72
2021/07/15 09:19:17;;;;;;;11.80;10.60;;;21.40;99.90;;;;;;4861659;29;20468;-72
2021/07/15 09:21:45;;;;;;;11.83;8.70;;;21.50;99.90;;;;;;4878890;29;20443;-72
2021/07/15 09:24:28;;;;;;;10.00;9.10;;;21.50;99.90;;;;;;4881499;29;20484;-72
2021/07/15 09:26:56;;;;;;;8.90;7.30;;;21.40;99.90;;;;;;4878550;29;20444;-72
2021/07/15 09:29:24;;;;;;;9.07;8.17;;;21.30;99.90;;;;;;4880023;29;21005;-72
2021/07/15 09:31:58;;;;;;;8.63;7.73;;;21.30;99.90;;;;;;4872215;29;20509;-72
2021/07/15 09:34:32;;;;;;;9.90;7.63;;;21.20;99.90;;;;;;4877744;29;20475;-72
2021/07/15 09:37:11;;;;;;;8.17;6.50;;;21.10;99.90;;;;;;4879649;29;20428;-72
2021/07/15 09:39:47;;;;;;;8.33;7.43;;;21.10;99.90;;;;;;4870333;29;20490;-72
2021/07/15 09:42:18;;;;;;;7.80;7.07;;;21.10;99.90;;;;;;4861102;29;20437;-72
2021/07/15 09:44:49;;;;;;;6.93;6.33;;;21.00;99.90;;;;;;4863473;29;20497;-72
2021/07/15 09:47:34;;;;;;;12.47;7.60;;;21.10;99.90;;;;;;4878654;29;20537;-72
2021/07/15 09:50:17;;;;;;;7.43;6.73;;;21.10;99.90;;;;;;4862406;29;20987;-72
2021/07/15 09:52:44;;;;;;;10.00;7.73;;;21.20;99.90;;;;;;4874368;29;20479;-72
2021/07/15 09:55:25;;;;;;;8.50;7.17;;;21.20;99.90;;;;;;4864892;29;20507;-72
2021/07/15 09:58:04;;;;;;;8.00;6.67;;;21.20;99.90;;;;;;4865815;29;20426;-72
2021/07/15 10:00:33;;;;;;;7.40;6.47;;;21.20;99.90;;;;;;4879018;29;20534;-72
2021/07/15 10:03:00;;;;;;;7.30;6.37;;;21.20;99.90;;;;;;4867327;29;20477;-72
2021/07/15 10:05:28;;;;;;;6.53;5.93;;;21.10;99.90;;;;;;4878056;29;20964;-72
2021/07/15 10:08:05;;;;;;;7.40;5.90;;;21.00;99.90;;;;;;4878579;29;20450;-72
2021/07/15 10:10:32;;;;;;;6.23;5.47;;;20.90;99.90;;;;;;4864066;29;20993;-72
2021/07/15 10:13:21;;;;;;;6.33;5.73;;;20.90;99.90;;;;;;4860294;29;20482;-72
2021/07/15 10:15:53;;;;;;;9.70;5.70;;;20.70;99.90;;;;;;4861591;29;20460;-72
2021/07/15 10:18:35;;;;;;;6.10;4.73;;;20.60;99.90;;;;;;4860658;29;20458;-72
2021/07/15 10:21:05;;;;;;;6.57;5.50;;;20.60;99.90;;;;;;4860191;29;20440;-72
2021/07/15 10:23:39;;;;;;;5.13;4.60;;;20.50;99.90;;;;;;4859682;29;20492;-72
2021/07/15 10:26:25;;;;;;;5.30;4.90;;;20.50;99.90;;;;;;4861528;29;20433;-72
2021/07/15 10:28:53;;;;;;;6.03;5.00;;;20.50;99.90;;;;;;4860711;29;20461;-72
2021/07/15 10:31:22;;;;;;;6.17;5.53;;;20.40;99.90;;;;;;4859732;29;20984;-72
2021/07/15 10:33:51;;;;;;;4.47;4.07;;;20.40;99.90;;;;;;4860866;29;20496;-72
2021/07/15 10:36:19;;;;;;;6.00;3.67;;;20.30;99.90;;;;;;4860144;29;21017;-72
2021/07/15 10:38:49;;;;;;;6.47;4.40;;;20.30;99.90;;;;;;4859057;29;21026;-72
2021/07/15 10:41:22;;;;;;;3.43;3.13;;;20.30;99.90;;;;;;4872861;29;20433;-72
2021/07/15 10:43:49;;;;;;;6.20;3.97;;;20.40;99.90;;;;;;4879079;29;20523;-72
2021/07/15 10:46:24;;;;;;;4.93;2.70;;;20.60;99.90;;;;;;4879660;29;20478;-72
2021/07/15 10:48:51;;;;;;;4.70;3.13;;;20.60;99.90;;;;;;4860960;29;20473;-72
2021/07/15 10:51:18;;;;;;;4.50;4.10;;;20.60;99.90;;;;;;4870611;29;20440;-72
2021/07/15 10:53:46;;;;;;;3.40;2.80;;;20.60;99.90;;;;;;4874636;29;20493;-71
2021/07/15 10:56:20;;;;;;;6.50;4.60;;;20.60;99.90;;;;;;4861037;29;20516;-72
2021/07/15 10:58:53;;;;;;;3.60;3.23;;;20.70;99.90;;;;;;4870385;29;20469;-72
2021/07/15 11:01:41;;;;;;;3.70;3.20;;;20.70;99.90;;;;;;4879517;29;20514;-72
2021/07/15 11:04:12;;;;;;;2.87;2.67;;;20.70;99.90;;;;;;4877477;29;20493;-72
2021/07/15 11:06:47;;;;;;;3.73;3.00;;;20.80;99.90;;;;;;4879309;29;20460;-72
2021/07/15 11:09:23;;;;;;;6.03;3.93;;;20.80;99.90;;;;;;4889752;29;20473;-72
2021/07/15 11:11:52;;;;;;;2.97;2.70;;;20.90;99.90;;;;;;4874070;29;20471;-72
2021/07/15 11:14:39;;;;;;;3.33;3.03;;;20.90;99.90;;;;;;4878462;29;20474;-72
2021/07/15 11:17:25;;;;;;;3.73;3.33;;;21.00;99.90;;;;;;4875201;29;20547;-72
2021/07/15 11:19:57;;;;;;;4.67;3.73;;;20.90;99.90;;;;;;4859737;29;20464;-72
2021/07/15 11:23:08;;;;;;;5.40;2.90;;;20.80;99.90;;;;;;4860454;29;20431;-72
2021/07/15 11:25:39;;;;;;;4.43;4.03;;;20.80;99.90;;;;;;4899512;29;20481;-72
2021/07/15 11:28:23;;;;;;;5.57;4.80;;;20.70;99.90;;;;;;4896754;29;20916;-72
2021/07/15 11:30:53;;;;;;;8.20;6.23;;;20.90;99.90;;;;;;4897504;29;20435;-72
2021/07/15 11:33:22;;;;;;;8.20;6.17;;;20.90;99.90;;;;;;4861606;29;20850;-72
2021/07/15 11:36:08;;;;;;;9.97;7.43;;;20.70;99.90;;;;;;4844212;29;20470;-72
2021/07/15 11:38:58;;;;;;;11.00;8.00;;;20.70;99.90;;;;;;4873995;29;20462;-72
2021/07/15 11:41:45;;;;;;;9.70;7.07;;;20.60;99.90;;;;;;4886820;29;20440;-72
2021/07/15 11:44:13;;;;;;;12.23;8.40;;;20.50;99.90;;;;;;4876971;29;20481;-72
2021/07/15 11:46:41;;;;;;;12.17;7.40;;;20.50;99.90;;;;;;4877529;29;20447;-72
2021/07/15 11:49:21;;;;;;;13.73;11.10;;;20.50;99.90;;;;;;4861701;29;20551;-72
2021/07/15 11:51:52;;;;;;;9.43;8.50;;;20.30;99.90;;;;;;4876775;29;20531;-72
2021/07/15 11:54:43;;;;;;;16.10;9.10;;;20.30;99.90;;;;;;4870703;29;20516;-72
2021/07/15 11:57:13;;;;;;;13.30;10.10;;;20.20;99.90;;;;;;4859580;29;20504;-72
2021/07/15 11:59:41;;;;;;;14.47;9.17;;;20.20;99.90;;;;;;4869121;29;20503;-72
2021/07/15 12:02:40;;;;;;;11.07;7.90;;;20.10;99.90;;;;;;4875721;29;20451;-72
2021/07/15 12:05:20;;;;;;;11.67;8.10;;;20.10;99.90;;;;;;4873590;29;20559;-72
2021/07/15 12:08:05;;;;;;;11.00;8.70;;;20.10;99.90;;;;;;4873951;29;20448;-72
2021/07/15 12:10:38;;;;;;;11.20;7.40;;;20.20;99.90;;;;;;4874230;29;20634;-72
2021/07/15 12:13:10;;;;;;;11.17;8.00;;;20.20;99.90;;;;;;4860628;29;20487;-72
2021/07/15 12:15:38;;;;;;;9.23;7.20;;;20.30;99.90;;;;;;4878320;29;20906;-72
2021/07/15 12:18:14;;;;;;;11.07;7.90;;;20.40;99.90;;;;;;4862419;29;20440;-72
2021/07/15 12:20:44;;;;;;;10.50;7.80;;;20.50;99.90;;;;;;4874457;29;20481;-72
2021/07/15 12:23:37;;;;;;;20.17;7.77;;;20.60;99.90;;;;;;4876985;29;20552;-72
2021/07/15 12:26:07;;;;;;;12.87;8.70;;;20.70;99.90;;;;;;4865605;23;20576;-77
2021/07/15 12:28:34;;;;;;;12.30;7.73;;;20.70;99.90;;;;;;4841194;29;20545;-76
2021/07/15 12:31:05;;;;;;;11.20;8.03;;;20.70;99.90;;;;;;4846839;29;20513;-74
2021/07/15 12:33:47;;;;;;;13.03;8.90;;;20.80;99.90;;;;;;4852590;29;20472;-77
2021/07/15 12:36:22;;;;;;;12.30;8.67;;;20.80;99.90;;;;;;4829694;29;20523;-76
2021/07/15 12:38:56;;;;;;;17.77;9.30;;;20.70;99.90;;;;;;4842166;29;21089;-76
2021/07/15 12:41:26;;;;;;;15.43;8.97;;;20.80;99.90;;;;;;4829579;29;20518;-75
2021/07/15 12:43:55;;;;;;;12.87;9.17;;;20.90;99.90;;;;;;4828966;29;20473;-76
2021/07/15 12:46:31;;;;;;;10.43;9.13;;;20.90;99.90;;;;;;4829541;29;20432;-76
2021/07/15 12:49:12;;;;;;;15.00;9.73;;;20.90;99.90;;;;;;4828330;29;20562;-76
2021/07/15 12:51:38;;;;;;;11.07;8.83;;;20.90;99.90;;;;;;4843823;29;20435;-76
2021/07/15 12:54:07;;;;;;;11.63;9.07;;;21.00;99.90;;;;;;4828576;29;20482;-76
2021/07/15 12:56:37;;;;;;;11.50;10.17;;;21.10;99.90;;;;;;4829660;29;20435;-74